Terminal Aerodrome Forecast
Issued by NWS

Home | Current Version | Previous Version | Text Only | Print | Product List | Glossary On
Versions: 1 2 3 4 5 6 7 8 9 10 11 12 13 14 15 16 17 18 19 20 21 22 23 24 25 26
696
FTUS46 KPDT 232320
TAFRDM
TAF
KRDM 232320Z 2400/2424 VRB06KT P6SM OVC070
     FM240400 19009KT P6SM VCSH OVC050
     FM241300 21010KT 5SM -SHSN BKN015 OVC030
     FM241900 31010KT P6SM BKN035 BKN070=

USA.gov is the U.S. government's official web portal to all federal, state and local government web resources and services.